« Back
NWS Peachtree City, Ga » Text Product » AHN Terminal Aerodrome Forecast


Printer-friendly Version
Current Version              Previous Versions:   1  2  3  4  5  6  7  8  9  

Terminal Aerodrome Forecast

951
FTUS42 KFFC 282202 AAA
TAFAHN
TAF AMD
KAHN 282202Z 2822/2918 29010G16KT P6SM SKC
     FM290000 30006KT P6SM SKC
     FM290300 VRB03KT P6SM SKC
     FM290900 09005KT P6SM SKC
     FM291600 13007KT P6SM SKC=



USA.gov is the U.S. government's official web portal to all federal, state and local government web resources and services.